createdAt,value
2017-09-23T14:30:06.259Z,8.50
2017-09-23T14:32:52.707Z,8.50
2017-09-23T15:28:17.530Z,5.63
2017-09-23T15:30:45.046Z,5.50
2017-09-23T15:33:12.533Z,5.20
2017-09-23T15:35:40.124Z,5.40
2017-09-23T15:38:07.581Z,4.93
2017-09-23T15:40:35.092Z,6.33
2017-09-23T15:43:02.551Z,7.00
2017-09-23T15:45:30.800Z,7.10
2017-09-23T15:47:58.304Z,7.50
2017-09-23T15:50:25.798Z,7.40
2017-09-23T15:52:53.405Z,10.40
2017-09-23T15:55:20.876Z,6.93
2017-09-23T15:57:48.329Z,7.00
2017-09-23T16:00:15.832Z,7.67
2017-09-23T16:02:43.380Z,7.87
2017-09-23T16:05:11.083Z,8.57
2017-09-23T16:07:38.741Z,8.20
2017-09-23T16:10:06.220Z,8.57
2017-09-23T16:12:33.872Z,7.30
2017-09-23T16:15:01.339Z,7.57
2017-09-23T16:17:28.922Z,7.40
2017-09-23T16:19:56.396Z,8.20
2017-09-23T16:22:23.882Z,8.83
2017-09-23T16:24:51.636Z,9.17
2017-09-23T16:27:19.373Z,8.70
2017-09-23T16:29:46.866Z,8.60
2017-09-23T16:32:14.351Z,8.63
2017-09-23T16:34:41.917Z,8.67
2017-09-23T16:37:09.695Z,8.43
2017-09-23T16:39:37.240Z,8.17
2017-09-23T16:42:04.796Z,8.20
2017-09-23T16:44:32.280Z,7.90
2017-09-23T16:46:59.777Z,7.90
2017-09-23T16:49:27.874Z,8.00
2017-09-23T16:51:55.426Z,7.50
2017-09-23T16:54:22.977Z,7.77
2017-09-23T16:56:50.453Z,7.40
2017-09-23T16:59:17.960Z,7.60
2017-09-23T17:01:45.444Z,8.23
2017-09-23T17:04:13.175Z,8.67
2017-09-23T17:06:40.678Z,8.30
2017-09-23T17:09:08.403Z,9.03
2017-09-23T17:11:36.325Z,9.33
2017-09-23T17:14:03.782Z,8.73
2017-09-23T17:16:31.267Z,8.83
2017-09-23T17:18:59.246Z,8.97
2017-09-23T17:21:26.781Z,12.73
2017-09-23T17:23:54.257Z,11.17
2017-09-23T17:26:21.763Z,9.80
2017-09-23T17:28:49.221Z,9.00
2017-09-23T17:31:16.683Z,8.20
2017-09-23T17:33:44.187Z,8.70
2017-09-23T17:36:11.661Z,9.10
2017-09-23T17:38:39.450Z,10.60
2017-09-23T17:41:07.061Z,14.13
2017-09-23T17:43:34.627Z,13.80
2017-09-23T17:46:02.133Z,11.80
2017-09-23T17:48:29.687Z,12.70
2017-09-23T17:50:57.272Z,12.87
2017-09-23T17:53:24.847Z,11.27
2017-09-23T17:55:52.372Z,11.53
2017-09-23T17:58:20.146Z,11.40
2017-09-23T18:00:47.714Z,11.80
2017-09-23T18:03:15.288Z,12.40
2017-09-23T18:05:42.803Z,17.03
2017-09-23T18:08:10.305Z,14.77
2017-09-23T18:10:37.791Z,13.60
2017-09-23T18:13:05.436Z,13.53
2017-09-23T18:15:32.971Z,11.30
2017-09-23T18:18:00.463Z,11.30
2017-09-23T18:20:28.112Z,11.30
2017-09-23T18:22:55.613Z,12.20
2017-09-23T18:25:23.155Z,12.97
2017-09-23T18:27:50.631Z,11.73
2017-09-23T18:30:18.190Z,12.90
2017-09-23T18:32:45.712Z,11.47
2017-09-23T18:35:13.198Z,11.80
2017-09-23T18:37:40.788Z,12.17
2017-09-23T18:40:08.500Z,13.70
2017-09-23T18:42:36.025Z,12.63
2017-09-23T18:45:03.653Z,12.40
2017-09-23T18:47:31.229Z,13.17
2017-09-23T18:49:58.916Z,13.47
2017-09-23T18:52:26.388Z,13.80
2017-09-23T18:54:54.729Z,14.70
2017-09-23T18:57:22.411Z,15.13
2017-09-23T18:59:50.148Z,15.53
2017-09-23T19:02:17.630Z,15.00
2017-09-23T19:04:45.099Z,15.67
2017-09-23T19:07:12.712Z,15.40
2017-09-23T19:09:40.267Z,16.10
2017-09-23T19:12:07.855Z,16.20
2017-09-23T19:14:35.340Z,17.40
2017-09-23T19:17:02.880Z,17.60
2017-09-23T19:19:30.395Z,18.37
2017-09-23T19:21:57.903Z,17.13
2017-09-23T19:24:25.629Z,18.63
2017-09-23T19:26:53.739Z,16.63
2017-09-23T19:29:21.237Z,15.90
2017-09-23T19:31:48.763Z,16.60
2017-09-23T19:34:16.357Z,16.50
2017-09-23T19:36:43.879Z,16.83
2017-09-23T19:39:11.405Z,17.40
2017-09-23T19:41:39.168Z,18.20
2017-09-23T19:44:06.655Z,16.87
2017-09-23T19:46:34.314Z,17.80
2017-09-23T19:49:01.879Z,18.57
2017-09-23T19:51:33.538Z,17.57
2017-09-23T19:54:01.057Z,18.83
2017-09-23T19:56:28.530Z,20.53
2017-09-23T19:58:56.048Z,19.60
2017-09-23T20:01:23.726Z,18.60
2017-09-23T20:03:51.229Z,19.73
2017-09-23T20:06:18.861Z,19.17
2017-09-23T20:08:46.625Z,19.13
2017-09-23T20:11:14.246Z,21.20
2017-09-23T20:13:41.727Z,19.47
2017-09-23T20:16:09.221Z,20.27
2017-09-23T20:18:36.955Z,20.50
2017-09-23T20:21:05.335Z,20.50
2017-09-23T20:23:33.060Z,20.00
2017-09-23T20:26:00.750Z,19.23
2017-09-23T20:28:28.300Z,17.70
2017-09-23T20:30:55.797Z,18.47
2017-09-23T20:33:23.301Z,18.13
2017-09-23T20:35:50.975Z,18.77
2017-09-23T20:38:18.447Z,18.03
2017-09-23T20:40:46.215Z,17.60
2017-09-23T20:43:13.810Z,18.63
2017-09-23T20:45:41.564Z,17.60
2017-09-23T20:48:09.257Z,16.70
2017-09-23T20:50:36.758Z,18.13
2017-09-23T20:53:04.582Z,18.10
2017-09-23T20:55:32.556Z,18.70
2017-09-23T20:58:00.262Z,18.30
2017-09-23T21:00:27.740Z,16.67
2017-09-23T21:02:55.322Z,20.03
2017-09-23T21:05:23.008Z,19.77
2017-09-23T21:07:50.588Z,19.93
2017-09-23T21:10:18.227Z,20.10
2017-09-23T21:12:45.869Z,20.77
2017-09-23T21:15:13.341Z,20.17
2017-09-23T21:17:41.638Z,21.17
2017-09-23T21:20:09.136Z,20.57
2017-09-23T21:22:36.673Z,20.13
2017-09-23T21:25:04.413Z,19.83
2017-09-23T21:27:32.060Z,19.67
2017-09-23T21:29:59.776Z,19.50
2017-09-23T21:32:27.706Z,19.33
2017-09-23T21:34:55.206Z,18.87
2017-09-23T21:37:22.697Z,19.07
2017-09-23T21:39:50.442Z,20.10
2017-09-23T21:42:18.190Z,18.10
2017-09-23T21:44:45.749Z,18.63
2017-09-23T21:47:13.295Z,18.87
2017-09-23T21:49:40.887Z,18.70
2017-09-23T21:52:08.718Z,16.93
2017-09-23T21:54:36.183Z,17.70
2017-09-23T21:57:03.733Z,17.17
2017-09-23T21:59:31.244Z,18.40
2017-09-23T22:01:58.801Z,17.90
2017-09-23T22:04:26.292Z,18.00
2017-09-23T22:06:53.853Z,18.40
2017-09-23T22:09:21.390Z,18.13
2017-09-23T22:11:48.982Z,17.40
2017-09-23T22:14:18.500Z,16.23
2017-09-23T22:16:46.424Z,17.80
2017-09-23T22:19:14.218Z,18.37
2017-09-23T22:21:41.789Z,17.37
2017-09-23T22:24:09.442Z,16.90
2017-09-23T22:26:38.141Z,16.30
2017-09-23T22:29:06.708Z,16.07
2017-09-23T22:31:35.025Z,17.30
2017-09-23T22:34:02.597Z,17.60
2017-09-23T22:36:30.393Z,18.60
2017-09-23T22:38:59.242Z,20.53
2017-09-23T22:41:27.854Z,19.50
2017-09-23T22:43:56.465Z,20.33
2017-09-23T22:46:24.502Z,19.67
2017-09-23T22:48:52.331Z,17.87
2017-09-23T22:51:21.649Z,16.77
2017-09-23T22:53:50.170Z,17.10
2017-09-23T22:56:20.512Z,17.67
2017-09-23T22:58:48.488Z,17.80
2017-09-23T23:01:16.133Z,17.10
2017-09-23T23:03:44.121Z,16.20
2017-09-23T23:06:12.785Z,17.70
2017-09-23T23:08:40.732Z,17.10
2017-09-23T23:11:10.340Z,16.47
2017-09-23T23:13:39.150Z,16.70
2017-09-23T23:16:07.974Z,16.73
2017-09-23T23:18:37.435Z,16.60
2017-09-23T23:21:05.525Z,15.87
2017-09-23T23:23:33.108Z,16.90
2017-09-23T23:26:02.511Z,19.43
2017-09-23T23:28:30.076Z,19.80
2017-09-23T23:30:59.315Z,22.60
2017-09-23T23:33:26.987Z,22.80
2017-09-23T23:35:55.004Z,21.00
2017-09-23T23:38:22.811Z,17.43
2017-09-23T23:40:50.978Z,16.60
2017-09-23T23:43:19.457Z,16.33
2017-09-23T23:45:48.871Z,16.70
2017-09-23T23:48:16.838Z,15.80
2017-09-23T23:53:18.965Z,17.27
2017-09-23T23:55:46.835Z,16.50
2017-09-23T23:58:14.814Z,16.70
